sensor_id;sensor_type;location;lat;lon;timestamp;pressure;altitude;pressure_sealevel;temperature;humidity
8641;BME280;4358;42.100;25.222;2023-07-20T00:02:23;99438.53;;;26.81;90.46
8641;BME280;4358;42.100;25.222;2023-07-20T00:04:50;99441.06;;;26.76;90.92
8641;BME280;4358;42.100;25.222;2023-07-20T00:07:17;99440.97;;;26.96;90.23
8641;BME280;4358;42.100;25.222;2023-07-20T00:09:44;99462.34;;;26.99;89.80
8641;BME280;4358;42.100;25.222;2023-07-20T00:12:12;99470.31;;;27.01;89.29
8641;BME280;4358;42.100;25.222;2023-07-20T00:14:39;99488.09;;;26.96;89.36
8641;BME280;4358;42.100;25.222;2023-07-20T00:17:06;99521.03;;;26.82;91.18
8641;BME280;4358;42.100;25.222;2023-07-20T00:19:33;99575.03;;;26.27;94.27
8641;BME280;4358;42.100;25.222;2023-07-20T00:22:00;99587.13;;;25.59;98.45
8641;BME280;4358;42.100;25.222;2023-07-20T00:24:27;99598.09;;;25.31;100.00
8641;BME280;4358;42.100;25.222;2023-07-20T00:26:54;99594.06;;;25.07;100.00
8641;BME280;4358;42.100;25.222;2023-07-20T00:29:22;99608.47;;;25.01;100.00
8641;BME280;4358;42.100;25.222;2023-07-20T00:31:49;99615.53;;;25.02;100.00
8641;BME280;4358;42.100;25.222;2023-07-20T00:34:15;99599.06;;;25.04;100.00
8641;BME280;4358;42.100;25.222;2023-07-20T00:36:42;99578.75;;;24.93;100.00
8641;BME280;4358;42.100;25.222;2023-07-20T00:39:09;99551.59;;;24.93;100.00
8641;BME280;4358;42.100;25.222;2023-07-20T00:41:36;99527.84;;;25.08;100.00
8641;BME280;4358;42.100;25.222;2023-07-20T00:44:04;99518.28;;;25.25;100.00
8641;BME280;4358;42.100;25.222;2023-07-20T00:46:32;99500.75;;;25.35;100.00
8641;BME280;4358;42.100;25.222;2023-07-20T00:48:59;99512.09;;;25.58;100.00
8641;BME280;4358;42.100;25.222;2023-07-20T00:51:27;99512.28;;;25.76;99.73
8641;BME280;4358;42.100;25.222;2023-07-20T00:53:54;99496.63;;;25.85;98.96
8641;BME280;4358;42.100;25.222;2023-07-20T00:56:21;99497.66;;;25.90;99.23
8641;BME280;4358;42.100;25.222;2023-07-20T00:58:48;99502.84;;;26.05;97.99
8641;BME280;4358;42.100;25.222;2023-07-20T01:01:15;99502.84;;;26.11;97.20
8641;BME280;4358;42.100;25.222;2023-07-20T01:03:43;99504.50;;;26.12;96.84
8641;BME280;4358;42.100;25.222;2023-07-20T01:06:16;99512.06;;;26.10;97.16
8641;BME280;4358;42.100;25.222;2023-07-20T01:08:52;99504.13;;;25.96;97.81
8641;BME280;4358;42.100;25.222;2023-07-20T01:11:27;99492.84;;;25.79;98.47
8641;BME280;4358;42.100;25.222;2023-07-20T01:13:55;99503.69;;;25.86;98.62
8641;BME280;4358;42.100;25.222;2023-07-20T01:16:22;99495.16;;;25.69;99.36
8641;BME280;4358;42.100;25.222;2023-07-20T01:18:51;99495.75;;;25.51;100.00
8641;BME280;4358;42.100;25.222;2023-07-20T01:21:31;99498.25;;;25.40;100.00
8641;BME280;4358;42.100;25.222;2023-07-20T01:24:25;99490.72;;;25.22;100.00
8641;BME280;4358;42.100;25.222;2023-07-20T01:30:21;99484.63;;;25.20;100.00
8641;BME280;4358;42.100;25.222;2023-07-20T01:32:54;99470.22;;;25.06;100.00
8641;BME280;4358;42.100;25.222;2023-07-20T01:35:23;99459.09;;;24.88;100.00
8641;BME280;4358;42.100;25.222;2023-07-20T01:37:53;99462.16;;;24.72;100.00
8641;BME280;4358;42.100;25.222;2023-07-20T01:40:21;99459.25;;;24.73;100.00
8641;BME280;4358;42.100;25.222;2023-07-20T01:42:49;99460.91;;;24.68;100.00
8641;BME280;4358;42.100;25.222;2023-07-20T01:45:15;99462.97;;;24.59;100.00
8641;BME280;4358;42.100;25.222;2023-07-20T01:47:42;99457.09;;;24.56;100.00
8641;BME280;4358;42.100;25.222;2023-07-20T01:50:11;99453.75;;;24.60;100.00
8641;BME280;4358;42.100;25.222;2023-07-20T01:52:38;99450.25;;;24.73;100.00
8641;BME280;4358;42.100;25.222;2023-07-20T01:55:05;99451.34;;;24.85;100.00
8641;BME280;4358;42.100;25.222;2023-07-20T01:57:32;99457.25;;;24.95;100.00
8641;BME280;4358;42.100;25.222;2023-07-20T02:00:00;99452.66;;;25.02;100.00
8641;BME280;4358;42.100;25.222;2023-07-20T02:02:27;99454.34;;;25.10;100.00
8641;BME280;4358;42.100;25.222;2023-07-20T02:04:54;99459.38;;;25.19;100.00
8641;BME280;4358;42.100;25.222;2023-07-20T02:07:22;99455.19;;;25.23;100.00
8641;BME280;4358;42.100;25.222;2023-07-20T02:09:49;99462.69;;;25.28;100.00
8641;BME280;4358;42.100;25.222;2023-07-20T02:12:16;99457.50;;;25.26;100.00
8641;BME280;4358;42.100;25.222;2023-07-20T02:14:43;99461.44;;;25.24;100.00
8641;BME280;4358;42.100;25.222;2023-07-20T02:17:10;99467.09;;;25.22;100.00
8641;BME280;4358;42.100;25.222;2023-07-20T02:19:37;99466.91;;;25.30;100.00
8641;BME280;4358;42.100;25.222;2023-07-20T02:22:04;99466.47;;;25.27;100.00
8641;BME280;4358;42.100;25.222;2023-07-20T02:24:33;99471.09;;;25.33;100.00
8641;BME280;4358;42.100;25.222;2023-07-20T02:27:00;99473.19;;;25.38;100.00
8641;BME280;4358;42.100;25.222;2023-07-20T02:29:26;99475.25;;;25.36;100.00
8641;BME280;4358;42.100;25.222;2023-07-20T02:31:53;99480.72;;;25.49;99.51
8641;BME280;4358;42.100;25.222;2023-07-20T02:34:20;99471.50;;;25.30;100.00
8641;BME280;4358;42.100;25.222;2023-07-20T02:36:47;99476.09;;;25.29;100.00
8641;BME280;4358;42.100;25.222;2023-07-20T02:39:14;99475.91;;;25.38;99.99
8641;BME280;4358;42.100;25.222;2023-07-20T02:41:42;99475.69;;;25.46;99.14
8641;BME280;4358;42.100;25.222;2023-07-20T02:44:09;99482.78;;;25.47;98.89
8641;BME280;4358;42.100;25.222;2023-07-20T02:46:36;99490.72;;;25.42;98.82
8641;BME280;4358;42.100;25.222;2023-07-20T02:49:03;99482.56;;;25.28;99.78
8641;BME280;4358;42.100;25.222;2023-07-20T02:51:30;99481.09;;;25.26;100.00
8641;BME280;4358;42.100;25.222;2023-07-20T02:53:57;99479.22;;;25.26;100.00
8641;BME280;4358;42.100;25.222;2023-07-20T02:56:24;99481.28;;;25.11;100.00
8641;BME280;4358;42.100;25.222;2023-07-20T02:58:52;99483.78;;;25.06;100.00
8641;BME280;4358;42.100;25.222;2023-07-20T03:01:19;99470.63;;;25.03;100.00
8641;BME280;4358;42.100;25.222;2023-07-20T03:03:45;99468.09;;;24.95;100.00
8641;BME280;4358;42.100;25.222;2023-07-20T03:06:13;99472.88;;;24.93;100.00
8641;BME280;4358;42.100;25.222;2023-07-20T03:08:40;99479.97;;;24.87;100.00
8641;BME280;4358;42.100;25.222;2023-07-20T03:11:13;99486.38;;;24.73;100.00
8641;BME280;4358;42.100;25.222;2023-07-20T03:13:40;99482.41;;;24.69;100.00
8641;BME280;4358;42.100;25.222;2023-07-20T03:16:10;99494.31;;;24.75;100.00
8641;BME280;4358;42.100;25.222;2023-07-20T03:18:38;99495.53;;;24.66;100.00
8641;BME280;4358;42.100;25.222;2023-07-20T03:21:05;99490.75;;;24.68;100.00
8641;BME280;4358;42.100;25.222;2023-07-20T03:23:32;99486.56;;;24.72;100.00
8641;BME280;4358;42.100;25.222;2023-07-20T03:25:59;99473.44;;;24.82;100.00
8641;BME280;4358;42.100;25.222;2023-07-20T03:28:25;99473.69;;;24.87;100.00
8641;BME280;4358;42.100;25.222;2023-07-20T03:30:53;99477.72;;;24.91;100.00
8641;BME280;4358;42.100;25.222;2023-07-20T03:33:25;99475.00;;;24.91;100.00
8641;BME280;4358;42.100;25.222;2023-07-20T03:35:52;99445.69;;;24.86;100.00
8641;BME280;4358;42.100;25.222;2023-07-20T03:38:19;99474.41;;;25.15;100.00
8641;BME280;4358;42.100;25.222;2023-07-20T03:40:49;99463.53;;;25.15;100.00
8641;BME280;4358;42.100;25.222;2023-07-20T03:43:17;99472.31;;;25.30;100.00
8641;BME280;4358;42.100;25.222;2023-07-20T03:45:44;99474.63;;;25.40;100.00
8641;BME280;4358;42.100;25.222;2023-07-20T03:48:13;99471.69;;;25.55;100.00
8641;BME280;4358;42.100;25.222;2023-07-20T03:50:44;99470.69;;;25.69;100.00
8641;BME280;4358;42.100;25.222;2023-07-20T03:53:11;99479.88;;;25.81;99.50
8641;BME280;4358;42.100;25.222;2023-07-20T03:55:37;99476.50;;;25.92;98.91
8641;BME280;4358;42.100;25.222;2023-07-20T03:58:06;99471.91;;;26.06;99.10
8641;BME280;4358;42.100;25.222;2023-07-20T04:00:32;99460.97;;;26.12;99.93
8641;BME280;4358;42.100;25.222;2023-07-20T04:02:59;99468.50;;;26.17;99.85
8641;BME280;4358;42.100;25.222;2023-07-20T04:05:26;99475.00;;;26.29;98.77
8641;BME280;4358;42.100;25.222;2023-07-20T04:07:55;99469.34;;;26.24;99.96
8641;BME280;4358;42.100;25.222;2023-07-20T04:10:22;99473.94;;;26.30;99.70
8641;BME280;4358;42.100;25.222;2023-07-20T04:12:49;99479.78;;;26.34;99.71
8641;BME280;4358;42.100;25.222;2023-07-20T04:15:16;99477.22;;;26.45;98.96
8641;BME280;4358;42.100;25.222;2023-07-20T04:17:43;99485.19;;;26.47;98.52
8641;BME280;4358;42.100;25.222;2023-07-20T04:20:11;99484.38;;;26.40;100.00
8641;BME280;4358;42.100;25.222;2023-07-20T04:22:38;99480.41;;;26.36;100.00
8641;BME280;4358;42.100;25.222;2023-07-20T04:25:07;99478.53;;;26.30;100.00
8641;BME280;4358;42.100;25.222;2023-07-20T04:27:35;99483.16;;;26.23;100.00
8641;BME280;4358;42.100;25.222;2023-07-20T04:30:03;99483.13;;;26.36;100.00
8641;BME280;4358;42.100;25.222;2023-07-20T04:32:30;99480.16;;;26.44;99.86
8641;BME280;4358;42.100;25.222;2023-07-20T04:34:59;99479.50;;;26.55;98.65
8641;BME280;4358;42.100;25.222;2023-07-20T04:37:26;99486.81;;;26.61;98.16
8641;BME280;4358;42.100;25.222;2023-07-20T04:39:53;99480.88;;;26.71;98.32
8641;BME280;4358;42.100;25.222;2023-07-20T04:42:21;99480.41;;;26.80;98.51
8641;BME280;4358;42.100;25.222;2023-07-20T04:44:48;99475.81;;;26.87;98.21
8641;BME280;4358;42.100;25.222;2023-07-20T04:47:14;99482.06;;;26.94;97.95
8641;BME280;4358;42.100;25.222;2023-07-20T04:49:41;99486.16;;;27.10;96.32
8641;BME280;4358;42.100;25.222;2023-07-20T04:52:08;99481.91;;;27.21;94.98
8641;BME280;4358;42.100;25.222;2023-07-20T04:54:35;99476.78;;;27.31;93.64
8641;BME280;4358;42.100;25.222;2023-07-20T04:57:02;99482.13;;;27.44;92.37
8641;BME280;4358;42.100;25.222;2023-07-20T04:59:30;99488.41;;;27.51;92.14
8641;BME280;4358;42.100;25.222;2023-07-20T05:01:59;99492.97;;;27.57;91.83
8641;BME280;4358;42.100;25.222;2023-07-20T05:04:26;99481.34;;;27.68;91.53
8641;BME280;4358;42.100;25.222;2023-07-20T05:06:52;99480.59;;;27.79;90.87
8641;BME280;4358;42.100;25.222;2023-07-20T05:09:19;99487.00;;;27.92;88.38
8641;BME280;4358;42.100;25.222;2023-07-20T05:11:48;99486.09;;;27.98;87.20
8641;BME280;4358;42.100;25.222;2023-07-20T05:14:15;99483.75;;;28.01;87.10
8641;BME280;4358;42.100;25.222;2023-07-20T05:16:43;99478.34;;;28.19;86.52
8641;BME280;4358;42.100;25.222;2023-07-20T05:19:10;99471.44;;;28.35;85.91
8641;BME280;4358;42.100;25.222;2023-07-20T05:21:37;99478.72;;;28.41;85.80
8641;BME280;4358;42.100;25.222;2023-07-20T05:24:04;99475.00;;;28.54;84.95
8641;BME280;4358;42.100;25.222;2023-07-20T05:26:31;99472.34;;;28.47;84.53
8641;BME280;4358;42.100;25.222;2023-07-20T05:28:59;99467.81;;;28.41;83.86
8641;BME280;4358;42.100;25.222;2023-07-20T05:31:25;99467.81;;;28.41;83.42
8641;BME280;4358;42.100;25.222;2023-07-20T05:33:54;99465.59;;;28.50;82.50
8641;BME280;4358;42.100;25.222;2023-07-20T05:36:21;99461.53;;;28.71;81.27
8641;BME280;4358;42.100;25.222;2023-07-20T05:38:47;99458.81;;;28.89;79.52
8641;BME280;4358;42.100;25.222;2023-07-20T05:41:15;99459.38;;;29.09;78.31
8641;BME280;4358;42.100;25.222;2023-07-20T05:43:44;99463.69;;;29.28;77.04
8641;BME280;4358;42.100;25.222;2023-07-20T05:46:11;99461.22;;;29.38;76.30
8641;BME280;4358;42.100;25.222;2023-07-20T05:48:38;99456.97;;;29.54;75.41
8641;BME280;4358;42.100;25.222;2023-07-20T05:51:06;99456.88;;;29.61;75.18
8641;BME280;4358;42.100;25.222;2023-07-20T05:53:35;99457.22;;;29.53;74.34
8641;BME280;4358;42.100;25.222;2023-07-20T05:56:02;99452.72;;;29.81;73.01
8641;BME280;4358;42.100;25.222;2023-07-20T05:58:29;99453.94;;;29.97;73.32
8641;BME280;4358;42.100;25.222;2023-07-20T06:00:56;99446.28;;;30.22;71.36
8641;BME280;4358;42.100;25.222;2023-07-20T06:03:23;99441.72;;;30.40;69.73
8641;BME280;4358;42.100;25.222;2023-07-20T06:05:50;99443.84;;;30.61;67.46
8641;BME280;4358;42.100;25.222;2023-07-20T06:08:18;99443.16;;;30.82;65.38
8641;BME280;4358;42.100;25.222;2023-07-20T06:10:49;99439.31;;;30.83;64.26
8641;BME280;4358;42.100;25.222;2023-07-20T06:13:17;99434.28;;;31.03;62.58
8641;BME280;4358;42.100;25.222;2023-07-20T06:15:44;99438.34;;;31.18;63.17
8641;BME280;4358;42.100;25.222;2023-07-20T06:18:11;99429.22;;;31.29;61.37
8641;BME280;4358;42.100;25.222;2023-07-20T06:20:38;99438.69;;;31.38;61.20
8641;BME280;4358;42.100;25.222;2023-07-20T06:23:05;99439.25;;;31.56;61.62
8641;BME280;4358;42.100;25.222;2023-07-20T06:25:33;99433.72;;;31.68;59.44
8641;BME280;4358;42.100;25.222;2023-07-20T06:28:00;99428.81;;;31.87;57.84
8641;BME280;4358;42.100;25.222;2023-07-20T06:30:26;99426.44;;;31.95;56.56
8641;BME280;4358;42.100;25.222;2023-07-20T06:32:53;99429.81;;;32.19;56.15
8641;BME280;4358;42.100;25.222;2023-07-20T06:35:20;99419.34;;;32.38;53.75
8641;BME280;4358;42.100;25.222;2023-07-20T06:37:47;99424.31;;;32.41;55.10
8641;BME280;4358;42.100;25.222;2023-07-20T06:40:14;99427.47;;;32.50;54.37
8641;BME280;4358;42.100;25.222;2023-07-20T06:42:42;99419.47;;;32.48;54.08
8641;BME280;4358;42.100;25.222;2023-07-20T06:45:10;99419.00;;;32.56;54.09
8641;BME280;4358;42.100;25.222;2023-07-20T06:47:38;99414.50;;;32.67;54.13
8641;BME280;4358;42.100;25.222;2023-07-20T06:50:06;99419.94;;;32.89;53.09
8641;BME280;4358;42.100;25.222;2023-07-20T06:52:33;99411.69;;;32.89;52.48
8641;BME280;4358;42.100;25.222;2023-07-20T06:55:00;99406.31;;;32.99;51.19
8641;BME280;4358;42.100;25.222;2023-07-20T06:57:27;99409.97;;;33.09;50.38
8641;BME280;4358;42.100;25.222;2023-07-20T06:59:55;99414.84;;;33.29;49.66
8641;BME280;4358;42.100;25.222;2023-07-20T07:02:22;99413.41;;;33.53;47.57
8641;BME280;4358;42.100;25.222;2023-07-20T07:04:49;99410.88;;;33.84;47.63
8641;BME280;4358;42.100;25.222;2023-07-20T07:07:16;99402.72;;;33.99;46.81
8641;BME280;4358;42.100;25.222;2023-07-20T07:09:43;99411.84;;;34.04;45.55
8641;BME280;4358;42.100;25.222;2023-07-20T07:12:10;99419.84;;;34.06;46.43
8641;BME280;4358;42.100;25.222;2023-07-20T07:14:36;99403.34;;;34.16;46.34
8641;BME280;4358;42.100;25.222;2023-07-20T07:17:05;99406.22;;;34.31;45.87
8641;BME280;4358;42.100;25.222;2023-07-20T07:19:32;99404.25;;;34.27;46.10
8641;BME280;4358;42.100;25.222;2023-07-20T07:21:59;99410.63;;;34.32;44.13
8641;BME280;4358;42.100;25.222;2023-07-20T07:24:26;99404.63;;;34.51;44.18
8641;BME280;4358;42.100;25.222;2023-07-20T07:26:59;99402.16;;;34.49;44.34
8641;BME280;4358;42.100;25.222;2023-07-20T07:29:25;99408.97;;;34.36;43.92
8641;BME280;4358;42.100;25.222;2023-07-20T07:31:52;99413.38;;;34.32;45.14
8641;BME280;4358;42.100;25.222;2023-07-20T07:34:20;99409.78;;;34.32;45.09
8641;BME280;4358;42.100;25.222;2023-07-20T07:36:47;99409.81;;;34.37;44.21
8641;BME280;4358;42.100;25.222;2023-07-20T07:39:14;99402.94;;;34.44;44.31
8641;BME280;4358;42.100;25.222;2023-07-20T07:41:41;99407.94;;;34.53;43.81
8641;BME280;4358;42.100;25.222;2023-07-20T07:44:08;99402.47;;;34.68;44.24
8641;BME280;4358;42.100;25.222;2023-07-20T07:46:35;99401.94;;;34.71;43.39
8641;BME280;4358;42.100;25.222;2023-07-20T07:49:02;99403.09;;;34.80;43.30
8641;BME280;4358;42.100;25.222;2023-07-20T07:51:30;99399.75;;;34.78;42.91
8641;BME280;4358;42.100;25.222;2023-07-20T07:53:57;99393.16;;;34.84;43.28
8641;BME280;4358;42.100;25.222;2023-07-20T07:56:24;99398.13;;;35.02;42.17
8641;BME280;4358;42.100;25.222;2023-07-20T07:58:51;99402.56;;;35.08;42.44
8641;BME280;4358;42.100;25.222;2023-07-20T08:01:18;99404.72;;;34.81;41.47
8641;BME280;4358;42.100;25.222;2023-07-20T08:03:45;99397.44;;;34.44;42.73
8641;BME280;4358;42.100;25.222;2023-07-20T08:06:13;99391.44;;;34.68;42.05
8641;BME280;4358;42.100;25.222;2023-07-20T08:08:41;99405.28;;;34.78;41.06
8641;BME280;4358;42.100;25.222;2023-07-20T08:11:08;99396.16;;;34.72;41.44
8641;BME280;4358;42.100;25.222;2023-07-20T08:13:36;99399.78;;;34.88;39.99
8641;BME280;4358;42.100;25.222;2023-07-20T08:16:03;99392.34;;;35.09;40.22
8641;BME280;4358;42.100;25.222;2023-07-20T08:18:30;99399.00;;;35.28;38.73
8641;BME280;4358;42.100;25.222;2023-07-20T08:20:57;99399.03;;;35.38;38.65
8641;BME280;4358;42.100;25.222;2023-07-20T08:23:24;99390.44;;;35.40;38.30
8641;BME280;4358;42.100;25.222;2023-07-20T08:25:54;99386.84;;;35.44;38.50
8641;BME280;4358;42.100;25.222;2023-07-20T08:28:21;99393.78;;;35.42;38.38
8641;BME280;4358;42.100;25.222;2023-07-20T08:30:48;99387.13;;;35.58;37.70
8641;BME280;4358;42.100;25.222;2023-07-20T08:33:17;99385.22;;;35.53;37.80
8641;BME280;4358;42.100;25.222;2023-07-20T08:35:45;99393.19;;;35.70;37.59
8641;BME280;4358;42.100;25.222;2023-07-20T08:38:12;99390.13;;;35.87;38.03
8641;BME280;4358;42.100;25.222;2023-07-20T08:40:40;99387.84;;;36.09;38.29
8641;BME280;4358;42.100;25.222;2023-07-20T08:43:10;99384.25;;;36.14;38.65
8641;BME280;4358;42.100;25.222;2023-07-20T08:45:39;99382.31;;;36.19;37.97
8641;BME280;4358;42.100;25.222;2023-07-20T08:48:06;99380.84;;;36.42;37.33
8641;BME280;4358;42.100;25.222;2023-07-20T08:50:34;99383.03;;;36.45;37.84
8641;BME280;4358;42.100;25.222;2023-07-20T08:53:02;99389.84;;;36.68;37.26
8641;BME280;4358;42.100;25.222;2023-07-20T08:55:29;99381.28;;;36.59;37.31
8641;BME280;4358;42.100;25.222;2023-07-20T08:57:58;99373.25;;;36.68;37.37
8641;BME280;4358;42.100;25.222;2023-07-20T09:00:27;99389.06;;;36.57;36.77
8641;BME280;4358;42.100;25.222;2023-07-20T09:02:55;99387.94;;;36.63;36.52
8641;BME280;4358;42.100;25.222;2023-07-20T09:05:23;99379.91;;;37.01;36.95
8641;BME280;4358;42.100;25.222;2023-07-20T09:07:51;99377.94;;;37.45;35.71
8641;BME280;4358;42.100;25.222;2023-07-20T09:10:20;99367.56;;;37.61;35.56
8641;BME280;4358;42.100;25.222;2023-07-20T09:12:47;99374.00;;;37.51;35.25
8641;BME280;4358;42.100;25.222;2023-07-20T09:15:14;99357.09;;;37.53;35.17
8641;BME280;4358;42.100;25.222;2023-07-20T09:17:47;99353.28;;;37.44;35.20
8641;BME280;4358;42.100;25.222;2023-07-20T09:20:15;99356.75;;;37.30;35.45
8641;BME280;4358;42.100;25.222;2023-07-20T09:22:42;99354.97;;;37.16;35.51
8641;BME280;4358;42.100;25.222;2023-07-20T09:25:11;99350.59;;;37.39;35.02
8641;BME280;4358;42.100;25.222;2023-07-20T09:27:40;99346.56;;;37.26;35.82
8641;BME280;4358;42.100;25.222;2023-07-20T09:30:08;99341.91;;;37.50;35.86
8641;BME280;4358;42.100;25.222;2023-07-20T09:32:39;99334.69;;;37.49;35.02
8641;BME280;4358;42.100;25.222;2023-07-20T09:35:12;99327.19;;;37.55;35.71
8641;BME280;4358;42.100;25.222;2023-07-20T09:37:40;99326.25;;;37.64;34.67
8641;BME280;4358;42.100;25.222;2023-07-20T09:40:07;99325.91;;;37.95;33.73
8641;BME280;4358;42.100;25.222;2023-07-20T09:42:36;99317.44;;;38.10;35.40
8641;BME280;4358;42.100;25.222;2023-07-20T09:45:07;99319.31;;;38.14;34.58
8641;BME280;4358;42.100;25.222;2023-07-20T09:47:35;99322.09;;;38.14;34.66
8641;BME280;4358;42.100;25.222;2023-07-20T09:50:03;99318.50;;;38.14;34.50
8641;BME280;4358;42.100;25.222;2023-07-20T09:52:31;99323.59;;;38.44;34.46
8641;BME280;4358;42.100;25.222;2023-07-20T09:54:58;99311.34;;;38.50;34.15
8641;BME280;4358;42.100;25.222;2023-07-20T09:57:26;99311.22;;;38.61;34.06
8641;BME280;4358;42.100;25.222;2023-07-20T09:59:52;99305.47;;;38.89;33.28
8641;BME280;4358;42.100;25.222;2023-07-20T10:02:21;99296.41;;;39.16;32.27
8641;BME280;4358;42.100;25.222;2023-07-20T10:04:52;99292.59;;;38.98;32.05
8641;BME280;4358;42.100;25.222;2023-07-20T10:07:22;99283.50;;;39.25;31.47
8641;BME280;4358;42.100;25.222;2023-07-20T10:09:52;99282.16;;;39.23;32.04
8641;BME280;4358;42.100;25.222;2023-07-20T10:12:22;99282.31;;;39.45;31.62
8641;BME280;4358;42.100;25.222;2023-07-20T10:14:54;99279.06;;;39.57;31.06
8641;BME280;4358;42.100;25.222;2023-07-20T10:17:25;99271.22;;;39.59;31.17
8641;BME280;4358;42.100;25.222;2023-07-20T10:19:55;99274.31;;;39.85;31.05
8641;BME280;4358;42.100;25.222;2023-07-20T10:22:25;99256.19;;;40.01;30.98
8641;BME280;4358;42.100;25.222;2023-07-20T10:24:54;99266.50;;;39.59;30.96
8641;BME280;4358;42.100;25.222;2023-07-20T10:27:24;99253.38;;;39.32;31.71
8641;BME280;4358;42.100;25.222;2023-07-20T10:29:51;99252.78;;;39.63;31.42
8641;BME280;4358;42.100;25.222;2023-07-20T10:32:20;99242.09;;;39.97;31.22
8641;BME280;4358;42.100;25.222;2023-07-20T10:34:50;99239.41;;;40.06;31.46
8641;BME280;4358;42.100;25.222;2023-07-20T10:37:51;99227.44;;;39.83;30.67
8641;BME280;4358;42.100;25.222;2023-07-20T10:40:28;99233.78;;;39.70;29.52
8641;BME280;4358;42.100;25.222;2023-07-20T10:43:00;99242.50;;;39.63;29.46
8641;BME280;4358;42.100;25.222;2023-07-20T10:45:41;99237.03;;;39.31;29.51
8641;BME280;4358;42.100;25.222;2023-07-20T10:48:15;99216.06;;;39.25;29.71
8641;BME280;4358;42.100;25.222;2023-07-20T10:50:43;99231.72;;;39.48;29.64
8641;BME280;4358;42.100;25.222;2023-07-20T10:53:11;99222.66;;;39.70;29.82
8641;BME280;4358;42.100;25.222;2023-07-20T10:55:39;99216.09;;;39.93;29.47
8641;BME280;4358;42.100;25.222;2023-07-20T10:58:08;99213.25;;;40.20;28.99
8641;BME280;4358;42.100;25.222;2023-07-20T11:00:35;99214.66;;;40.54;28.76
8641;BME280;4358;42.100;25.222;2023-07-20T11:03:02;99210.69;;;40.91;28.53
8641;BME280;4358;42.100;25.222;2023-07-20T11:05:33;99211.13;;;41.07;28.88
8641;BME280;4358;42.100;25.222;2023-07-20T11:08:04;99204.66;;;40.97;28.20
8641;BME280;4358;42.100;25.222;2023-07-20T11:10:31;99204.16;;;40.95;28.22
8641;BME280;4358;42.100;25.222;2023-07-20T11:13:22;99206.28;;;40.98;28.03
8641;BME280;4358;42.100;25.222;2023-07-20T11:16:04;99195.63;;;40.92;28.95
8641;BME280;4358;42.100;25.222;2023-07-20T11:18:34;99202.47;;;41.08;28.44
8641;BME280;4358;42.100;25.222;2023-07-20T11:21:10;99201.50;;;40.90;28.14
8641;BME280;4358;42.100;25.222;2023-07-20T11:23:38;99192.66;;;40.44;28.12
8641;BME280;4358;42.100;25.222;2023-07-20T11:26:05;99183.50;;;40.21;28.33
8641;BME280;4358;42.100;25.222;2023-07-20T11:28:35;99182.75;;;40.15;28.40
8641;BME280;4358;42.100;25.222;2023-07-20T11:31:02;99179.69;;;40.17;28.53
8641;BME280;4358;42.100;25.222;2023-07-20T11:33:29;99170.81;;;40.51;27.86
8641;BME280;4358;42.100;25.222;2023-07-20T11:35:56;99165.50;;;40.63;27.57
8641;BME280;4358;42.100;25.222;2023-07-20T11:38:23;99165.16;;;40.87;27.87
8641;BME280;4358;42.100;25.222;2023-07-20T11:40:50;99160.75;;;40.94;28.40
8641;BME280;4358;42.100;25.222;2023-07-20T11:43:17;99162.53;;;41.21;27.91
8641;BME280;4358;42.100;25.222;2023-07-20T11:45:47;99156.00;;;41.17;27.71
8641;BME280;4358;42.100;25.222;2023-07-20T11:48:15;99149.16;;;41.32;27.18
8641;BME280;4358;42.100;25.222;2023-07-20T11:50:42;99142.94;;;40.95;27.49
8641;BME280;4358;42.100;25.222;2023-07-20T11:53:09;99142.47;;;41.02;27.37
8641;BME280;4358;42.100;25.222;2023-07-20T11:55:36;99136.97;;;41.11;27.18
8641;BME280;4358;42.100;25.222;2023-07-20T11:58:04;99127.13;;;41.53;26.79
8641;BME280;4358;42.100;25.222;2023-07-20T12:00:32;99126.84;;;41.71;26.16
8641;BME280;4358;42.100;25.222;2023-07-20T12:03:01;99109.44;;;41.66;27.64
8641;BME280;4358;42.100;25.222;2023-07-20T12:05:28;99114.66;;;41.02;27.92
8641;BME280;4358;42.100;25.222;2023-07-20T12:07:55;99118.13;;;41.08;27.71
8641;BME280;4358;42.100;25.222;2023-07-20T12:10:25;99115.56;;;40.89;27.17
8641;BME280;4358;42.100;25.222;2023-07-20T12:12:54;99125.66;;;40.54;26.14
8641;BME280;4358;42.100;25.222;2023-07-20T12:15:23;99097.66;;;40.19;26.09
8641;BME280;4358;42.100;25.222;2023-07-20T12:17:51;99106.69;;;40.25;26.08
8641;BME280;4358;42.100;25.222;2023-07-20T12:20:27;99107.34;;;40.53;26.01
8641;BME280;4358;42.100;25.222;2023-07-20T12:22:56;99104.34;;;40.41;26.12
8641;BME280;4358;42.100;25.222;2023-07-20T12:25:23;99115.25;;;39.93;26.28
8641;BME280;4358;42.100;25.222;2023-07-20T12:28:00;99121.63;;;39.93;26.94
8641;BME280;4358;42.100;25.222;2023-07-20T12:30:28;99127.06;;;39.98;26.50
8641;BME280;4358;42.100;25.222;2023-07-20T12:32:55;99118.97;;;40.10;26.09
8641;BME280;4358;42.100;25.222;2023-07-20T12:35:22;99116.66;;;40.26;26.28
8641;BME280;4358;42.100;25.222;2023-07-20T12:37:50;99102.97;;;40.30;25.54
8641;BME280;4358;42.100;25.222;2023-07-20T12:40:17;99121.38;;;40.48;25.84
8641;BME280;4358;42.100;25.222;2023-07-20T12:42:44;99109.25;;;40.21;26.58
8641;BME280;4358;42.100;25.222;2023-07-20T12:45:10;99103.06;;;40.02;26.58
8641;BME280;4358;42.100;25.222;2023-07-20T12:47:39;99100.66;;;39.87;27.05
8641;BME280;4358;42.100;25.222;2023-07-20T12:50:07;99102.41;;;40.05;27.74
8641;BME280;4358;42.100;25.222;2023-07-20T12:52:36;99106.50;;;40.21;27.27
8641;BME280;4358;42.100;25.222;2023-07-20T12:55:06;99111.25;;;40.52;26.50
8641;BME280;4358;42.100;25.222;2023-07-20T12:57:34;99105.00;;;40.69;26.50
8641;BME280;4358;42.100;25.222;2023-07-20T13:00:01;99105.06;;;40.55;27.59
8641;BME280;4358;42.100;25.222;2023-07-20T13:02:29;99105.44;;;40.17;27.68
8641;BME280;4358;42.100;25.222;2023-07-20T13:04:57;99101.16;;;40.11;27.75
8641;BME280;4358;42.100;25.222;2023-07-20T13:07:30;99099.19;;;40.12;27.56
8641;BME280;4358;42.100;25.222;2023-07-20T13:09:57;99098.75;;;40.18;27.86
8641;BME280;4358;42.100;25.222;2023-07-20T13:12:27;99077.91;;;40.07;28.13
8641;BME280;4358;42.100;25.222;2023-07-20T13:14:54;99091.25;;;39.97;28.35
8641;BME280;4358;42.100;25.222;2023-07-20T13:17:22;99094.28;;;39.73;28.48